Time;durP1;ratioP1;P1;durP2;ratioP2;P2;SDS_P1;SDS_P2;PMS_P1;PMS_P2;Temp;Humidity;BMP_temperature;BMP_pressure;BME280_temperature;BME280_humidity;BME280_pressure;Samples;Min_cycle;Max_cycle;Signal;HPM_P1;HPM_P2
2022/09/28 00:01:53;;;;;;;3.50;1.83;;;8.70;99.90;;;;;;4995165;28;20082;-66
2022/09/28 00:04:19;;;;;;;2.88;1.95;;;8.60;99.90;;;;;;4996328;28;20518;-66
2022/09/28 00:06:46;;;;;;;2.80;1.80;;;8.30;99.90;;;;;;4995995;28;20046;-67
2022/09/28 00:09:12;;;;;;;3.97;2.40;;;8.30;99.90;;;;;;4996157;28;20057;-67
2022/09/28 00:11:38;;;;;;;3.60;1.90;;;8.50;99.90;;;;;;4995033;28;20046;-67
2022/09/28 00:14:06;;;;;;;2.50;1.95;;;8.60;99.90;;;;;;4996244;28;20129;-67
2022/09/28 00:16:43;;;;;;;3.03;2.20;;;8.30;99.90;;;;;;4996335;28;20050;-67
2022/09/28 00:19:10;;;;;;;2.92;2.00;;;8.20;99.90;;;;;;4996238;28;20050;-67
2022/09/28 00:21:38;;;;;;;3.35;2.08;;;8.50;99.90;;;;;;4995941;28;20459;-67
2022/09/28 00:24:16;;;;;;;3.45;1.92;;;8.20;99.90;;;;;;4996022;28;20046;-67
2022/09/28 00:26:50;;;;;;;3.60;1.80;;;8.10;99.90;;;;;;4996168;28;20093;-67
2022/09/28 00:29:34;;;;;;;4.15;2.33;;;8.30;99.90;;;;;;4995848;28;20121;-67
2022/09/28 00:32:10;;;;;;;4.32;2.30;;;8.20;99.90;;;;;;4995814;28;20042;-67
2022/09/28 00:34:44;;;;;;;4.25;1.98;;;8.10;99.90;;;;;;4994163;28;20057;-70
2022/09/28 00:37:11;;;;;;;5.45;2.33;;;8.10;99.90;;;;;;4996313;28;20063;-67
2022/09/28 00:39:40;;;;;;;3.22;2.22;;;8.00;99.90;;;;;;4994876;28;20046;-67
2022/09/28 00:42:15;;;;;;;3.90;2.38;;;8.10;99.90;;;;;;4994879;28;20382;-67
2022/09/28 00:44:45;;;;;;;4.22;2.60;;;7.90;99.90;;;;;;4994338;28;20415;-67
2022/09/28 00:47:30;;;;;;;3.83;2.33;;;7.80;99.90;;;;;;4996111;28;20054;-67
2022/09/28 00:50:10;;;;;;;4.78;2.20;;;8.10;99.90;;;;;;4995641;28;20058;-67
2022/09/28 00:52:59;;;;;;;3.08;2.42;;;8.10;99.90;;;;;;4995730;28;20133;-67
2022/09/28 00:55:41;;;;;;;3.90;2.65;;;8.00;99.90;;;;;;4995466;28;20486;-67
2022/09/28 00:58:10;;;;;;;4.28;2.33;;;8.10;99.90;;;;;;4994443;28;20499;-67
2022/09/28 01:00:39;;;;;;;4.07;2.70;;;7.60;99.90;;;;;;4978281;28;20477;-67
2022/09/28 01:03:06;;;;;;;5.05;2.70;;;8.00;99.90;;;;;;4995182;28;20046;-67
2022/09/28 01:05:33;;;;;;;3.92;2.75;;;7.70;99.90;;;;;;4994642;28;20089;-67
2022/09/28 01:08:00;;;;;;;4.43;2.80;;;8.00;99.90;;;;;;4994929;28;20054;-67
2022/09/28 01:10:27;;;;;;;6.03;2.72;;;7.90;99.90;;;;;;4994359;28;20050;-67
2022/09/28 01:12:54;;;;;;;3.38;2.35;;;7.50;99.90;;;;;;4995120;28;20097;-67
2022/09/28 01:15:23;;;;;;;6.05;2.70;;;7.60;99.90;;;;;;4995044;28;20050;-67
2022/09/28 01:18:10;;;;;;;4.20;3.05;;;7.80;99.90;;;;;;4995001;28;20049;-67
2022/09/28 01:21:28;;;;;;;3.92;2.97;;;7.90;99.90;;;;;;4994144;28;20479;-67
2022/09/28 01:24:20;;;;;;;4.65;2.83;;;7.60;99.90;;;;;;4961619;28;20050;-67
2022/09/28 01:26:59;;;;;;;3.95;2.80;;;7.70;99.90;;;;;;4994077;28;20560;-67
2022/09/28 01:30:01;;;;;;;3.70;2.33;;;7.60;99.90;;;;;;4995256;28;20054;-67
2022/09/28 01:32:48;;;;;;;4.25;2.40;;;7.50;99.90;;;;;;4981248;28;20058;-67
2022/09/28 01:35:30;;;;;;;4.05;2.80;;;7.60;99.90;;;;;;4994840;28;20066;-67
2022/09/28 01:38:06;;;;;;;4.80;3.03;;;7.50;99.90;;;;;;4994641;28;20050;-67
2022/09/28 01:40:33;;;;;;;3.50;2.60;;;7.40;99.90;;;;;;4994707;28;20053;-67
2022/09/28 01:43:07;;;;;;;4.50;2.33;;;7.60;99.90;;;;;;4993095;28;20128;-67
2022/09/28 01:45:45;;;;;;;4.88;3.03;;;7.60;99.90;;;;;;4977658;28;20111;-67
2022/09/28 01:48:16;;;;;;;4.88;2.90;;;7.20;99.90;;;;;;4993971;28;20157;-67
2022/09/28 01:50:45;;;;;;;4.50;3.30;;;7.50;99.90;;;;;;4994436;28;20054;-67
2022/09/28 01:53:21;;;;;;;3.67;2.90;;;8.00;99.90;;;;;;4994676;28;20049;-67
2022/09/28 01:55:53;;;;;;;5.82;3.13;;;7.30;99.90;;;;;;4994578;28;20050;-67
2022/09/28 01:58:37;;;;;;;5.93;2.75;;;8.20;99.90;;;;;;4994644;28;20050;-67
2022/09/28 02:01:08;;;;;;;5.05;2.72;;;7.10;99.90;;;;;;4994300;28;20046;-67
2022/09/28 02:04:00;;;;;;;5.35;2.70;;;8.00;99.90;;;;;;4993049;28;20449;-67
2022/09/28 02:06:32;;;;;;;4.22;2.67;;;7.50;99.90;;;;;;4993074;28;20053;-67
2022/09/28 02:09:04;;;;;;;4.13;2.58;;;7.50;99.90;;;;;;4993566;28;20058;-67
2022/09/28 02:11:32;;;;;;;3.15;2.47;;;7.30;99.90;;;;;;4994093;28;20046;-67
2022/09/28 02:14:06;;;;;;;3.92;3.00;;;7.80;99.90;;;;;;4994066;28;20047;-67
2022/09/28 02:16:39;;;;;;;4.50;3.38;;;7.50;99.90;;;;;;4993918;28;20150;-67
2022/09/28 02:19:10;;;;;;;6.07;3.20;;;7.30;99.90;;;;;;4994740;28;20064;-67
2022/09/28 02:21:44;;;;;;;4.15;3.30;;;7.40;99.90;;;;;;4993244;28;20053;-67
2022/09/28 02:24:17;;;;;;;3.90;2.70;;;7.40;99.90;;;;;;4993986;28;20046;-67
2022/09/28 02:26:46;;;;;;;4.00;3.03;;;7.40;99.90;;;;;;4992831;28;20050;-67
2022/09/28 02:29:12;;;;;;;5.05;3.13;;;7.10;99.90;;;;;;4994030;28;20469;-67
2022/09/28 02:31:38;;;;;;;3.70;2.85;;;7.20;99.90;;;;;;4994111;28;20049;-67
2022/09/28 02:34:04;;;;;;;3.90;2.97;;;7.30;99.90;;;;;;4993714;28;20150;-67
2022/09/28 02:36:31;;;;;;;5.78;3.80;;;7.10;99.90;;;;;;4992108;28;20141;-67
2022/09/28 02:38:57;;;;;;;8.40;3.92;;;6.90;99.90;;;;;;4993808;28;20487;-67
2022/09/28 02:41:48;;;;;;;5.97;3.60;;;7.00;99.90;;;;;;4993749;28;20089;-67
2022/09/28 02:44:17;;;;;;;8.02;3.50;;;7.00;99.90;;;;;;4994026;28;20081;-67
2022/09/28 02:47:13;;;;;;;7.18;3.38;;;7.10;99.90;;;;;;4993733;28;20105;-67
2022/09/28 02:49:42;;;;;;;6.70;3.03;;;6.80;99.90;;;;;;4992481;28;20410;-67
2022/09/28 02:52:23;;;;;;;6.03;3.50;;;6.80;99.90;;;;;;4993640;28;20101;-67
2022/09/28 02:55:18;;;;;;;5.10;3.10;;;7.50;99.90;;;;;;4992950;28;20061;-67
2022/09/28 02:58:09;;;;;;;7.35;3.30;;;6.90;99.90;;;;;;4992424;28;20102;-67
2022/09/28 03:00:45;;;;;;;7.40;3.30;;;6.90;99.90;;;;;;4992614;28;20086;-67
2022/09/28 03:03:19;;;;;;;6.65;3.38;;;7.20;99.90;;;;;;4993938;28;20388;-67
2022/09/28 03:06:06;;;;;;;6.20;3.00;;;7.00;99.90;;;;;;4992937;28;20042;-67
2022/09/28 03:08:53;;;;;;;8.10;3.28;;;6.90;99.90;;;;;;4992523;28;20064;-67
2022/09/28 03:11:33;;;;;;;12.50;3.17;;;6.90;99.90;;;;;;4993251;28;20050;-67
2022/09/28 03:14:00;;;;;;;14.80;3.60;;;7.30;99.90;;;;;;4993469;28;20505;-67
2022/09/28 03:16:27;;;;;;;7.05;2.92;;;7.30;99.90;;;;;;4993432;28;20528;-67
2022/09/28 03:18:52;;;;;;;15.40;4.18;;;7.70;99.90;;;;;;4993491;28;20050;-68
2022/09/28 03:21:18;;;;;;;11.55;3.53;;;7.20;99.90;;;;;;4993361;28;20053;-67
2022/09/28 03:23:44;;;;;;;18.98;3.40;;;7.40;99.90;;;;;;4993369;28;20046;-67
2022/09/28 03:26:13;;;;;;;14.02;3.15;;;7.20;99.90;;;;;;4992867;28;20086;-67
2022/09/28 03:28:39;;;;;;;26.33;4.15;;;7.40;99.90;;;;;;4992384;28;20038;-66
2022/09/28 03:31:05;;;;;;;26.17;5.22;;;8.10;99.90;;;;;;4993402;28;20086;-67
2022/09/28 03:33:31;;;;;;;61.65;6.35;;;7.50;99.90;;;;;;4996897;28;20051;-67
2022/09/28 03:35:57;;;;;;;110.80;8.70;;;7.50;99.90;;;;;;4996428;28;20085;-67
2022/09/28 03:38:22;;;;;;;107.15;8.57;;;7.60;99.90;;;;;;4997007;28;20046;-67
2022/09/28 03:40:56;;;;;;;79.40;8.25;;;7.30;99.90;;;;;;4996634;28;20053;-67
2022/09/28 03:43:23;;;;;;;54.00;6.07;;;7.80;99.90;;;;;;4995755;28;20042;-67
2022/09/28 03:45:56;;;;;;;41.58;6.38;;;7.60;99.90;;;;;;4996887;28;20057;-67
2022/09/28 03:48:23;;;;;;;;;;;7.60;99.90;;;;;;4996209;28;20411;-67
2022/09/28 03:50:52;;;;;;;70.93;7.20;;;7.70;99.90;;;;;;4995587;28;19922;-67
2022/09/28 03:53:18;;;;;;;91.25;9.07;;;7.60;99.90;;;;;;4996605;28;20173;-67
2022/09/28 03:55:43;;;;;;;39.08;6.18;;;7.70;99.90;;;;;;4995661;28;20090;-67
2022/09/28 03:58:09;;;;;;;78.38;7.20;;;7.60;99.90;;;;;;4996354;28;20043;-67
2022/09/28 04:00:37;;;;;;;70.35;7.43;;;8.10;99.90;;;;;;4996230;28;20108;-67
2022/09/28 04:03:02;;;;;;;54.42;7.13;;;7.50;99.90;;;;;;4995443;28;20133;-67
2022/09/28 04:05:28;;;;;;;54.35;5.75;;;7.40;99.90;;;;;;4994868;28;20138;-67
2022/09/28 04:07:57;;;;;;;64.30;7.45;;;7.90;99.90;;;;;;4995505;28;20368;-67
2022/09/28 04:10:24;;;;;;;43.13;5.78;;;7.80;99.90;;;;;;4996475;28;20050;-67
2022/09/28 04:12:56;;;;;;;49.75;6.05;;;7.30;99.90;;;;;;4995290;28;20097;-67
2022/09/28 04:15:25;;;;;;;53.05;6.85;;;7.40;99.90;;;;;;4996215;28;20054;-68
2022/09/28 04:17:51;;;;;;;52.92;6.80;;;7.50;99.90;;;;;;4996284;28;20046;-68
2022/09/28 04:20:17;;;;;;;86.22;9.43;;;7.40;99.90;;;;;;4995147;28;20104;-67
2022/09/28 04:22:43;;;;;;;28.33;5.15;;;7.60;99.90;;;;;;4995598;28;20062;-68
2022/09/28 04:25:09;;;;;;;48.10;7.00;;;7.10;99.90;;;;;;4978647;28;20445;-68
2022/09/28 04:30:19;;;;;;;25.13;5.55;;;7.80;99.90;;;;;;4996443;28;20050;-67
2022/09/28 04:32:46;;;;;;;46.67;6.70;;;7.70;99.90;;;;;;4995610;28;20386;-68
2022/09/28 04:35:12;;;;;;;40.15;6.40;;;7.30;99.90;;;;;;4995337;28;20104;-68
2022/09/28 04:37:39;;;;;;;28.65;6.40;;;7.60;99.90;;;;;;4995970;28;20425;-67
2022/09/28 04:40:05;;;;;;;45.55;7.88;;;7.40;99.90;;;;;;4995753;28;20050;-68
2022/09/28 04:42:31;;;;;;;26.67;5.80;;;7.30;99.90;;;;;;4995529;28;20498;-68
2022/09/28 04:44:57;;;;;;;42.70;7.40;;;7.40;99.90;;;;;;4993817;28;20046;-68
2022/09/28 04:47:24;;;;;;;32.30;5.97;;;7.60;99.90;;;;;;4995840;28;20057;-68
2022/09/28 04:49:49;;;;;;;24.75;5.82;;;7.40;99.90;;;;;;4995607;28;20509;-67
2022/09/28 04:52:15;;;;;;;47.08;7.47;;;7.30;99.90;;;;;;4995644;28;20046;-67
2022/09/28 04:54:41;;;;;;;24.17;5.57;;;7.50;99.90;;;;;;4995354;28;20049;-68
2022/09/28 04:57:07;;;;;;;22.40;5.95;;;7.40;99.90;;;;;;4995447;28;20086;-68
2022/09/28 04:59:33;;;;;;;34.47;6.47;;;7.00;99.90;;;;;;4995692;28;20125;-68
2022/09/28 05:01:58;;;;;;;43.92;6.82;;;8.00;99.90;;;;;;4995346;28;20406;-67
2022/09/28 05:04:24;;;;;;;22.17;5.47;;;7.40;99.90;;;;;;4994383;28;20046;-67
2022/09/28 05:06:50;;;;;;;19.88;5.32;;;7.40;99.90;;;;;;4993734;28;20450;-68
2022/09/28 05:09:15;;;;;;;41.22;5.13;;;7.10;99.90;;;;;;4995316;28;20050;-68
2022/09/28 05:11:41;;;;;;;32.30;5.07;;;7.30;99.90;;;;;;4994099;28;20061;-68
2022/09/28 05:14:07;;;;;;;28.33;4.78;;;7.80;99.90;;;;;;4995220;28;20042;-68
2022/09/28 05:16:33;;;;;;;56.85;8.07;;;7.50;99.90;;;;;;4995106;28;20054;-67
2022/09/28 05:18:59;;;;;;;51.67;6.20;;;7.40;99.90;;;;;;4993856;28;20407;-68
2022/09/28 05:21:26;;;;;;;19.77;5.35;;;7.00;99.90;;;;;;4962040;28;20096;-67
2022/09/28 05:23:54;;;;;;;26.85;5.25;;;7.60;99.90;;;;;;4994851;28;20054;-68
2022/09/28 05:26:20;;;;;;;38.38;5.80;;;7.20;99.90;;;;;;4994727;28;20491;-68
2022/09/28 05:28:46;;;;;;;29.80;5.30;;;7.30;99.90;;;;;;4995081;28;20069;-68
2022/09/28 05:31:12;;;;;;;53.33;7.50;;;7.30;99.90;;;;;;4994042;28;20050;-68
2022/09/28 05:33:38;;;;;;;14.70;4.55;;;6.80;99.90;;;;;;4994917;28;20066;-68
2022/09/28 05:36:07;;;;;;;28.63;5.13;;;6.80;99.90;;;;;;4994203;28;20121;-68
2022/09/28 05:38:33;;;;;;;29.52;5.30;;;6.80;99.90;;;;;;4994590;28;20054;-68
2022/09/28 05:40:58;;;;;;;34.65;5.40;;;6.90;99.90;;;;;;4993366;28;20411;-68
2022/09/28 05:43:24;;;;;;;23.30;4.40;;;6.80;99.90;;;;;;4994681;28;20047;-68
2022/09/28 05:45:50;;;;;;;23.30;4.03;;;6.80;99.90;;;;;;4993264;28;20050;-68
2022/09/28 05:48:15;;;;;;;30.50;4.90;;;7.00;99.90;;;;;;4993871;28;20157;-68
2022/09/28 05:50:41;;;;;;;10.45;3.55;;;7.40;99.90;;;;;;4994550;28;20120;-68
2022/09/28 05:53:08;;;;;;;27.15;4.75;;;6.90;99.90;;;;;;4960874;28;20392;-69
2022/09/28 05:55:35;;;;;;;18.63;4.63;;;7.00;99.90;;;;;;4994351;28;20466;-68
2022/09/28 05:58:04;;;;;;;16.25;4.43;;;6.60;99.90;;;;;;4994969;28;20042;-68
2022/09/28 06:00:31;;;;;;;46.53;5.90;;;5.90;99.90;;;;;;4993206;28;20503;-68
2022/09/28 06:03:03;;;;;;;10.80;3.90;;;6.60;99.90;;;;;;4993109;28;20050;-68
2022/09/28 06:05:30;;;;;;;11.98;3.38;;;6.80;99.90;;;;;;4993836;28;20512;-68
2022/09/28 06:07:56;;;;;;;7.60;3.38;;;6.80;99.90;;;;;;4994051;28;20049;-68
2022/09/28 06:10:23;;;;;;;6.97;2.88;;;6.70;99.90;;;;;;4994793;28;20046;-68
2022/09/28 06:12:54;;;;;;;14.45;3.45;;;6.50;99.90;;;;;;4992953;28;20046;-67
2022/09/28 06:15:24;;;;;;;20.73;3.92;;;6.80;99.90;;;;;;4994179;28;20039;-68
2022/09/28 06:18:01;;;;;;;27.83;5.35;;;6.50;99.90;;;;;;4992956;28;20046;-67
2022/09/28 06:20:30;;;;;;;11.95;3.53;;;6.90;99.90;;;;;;4993970;28;20146;-68
2022/09/28 06:22:56;;;;;;;19.00;3.38;;;6.40;99.90;;;;;;4994223;28;20125;-68
2022/09/28 06:25:23;;;;;;;44.40;5.30;;;6.70;99.90;;;;;;4994035;28;20068;-68
2022/09/28 06:28:13;;;;;;;23.75;4.40;;;6.80;99.90;;;;;;4992901;28;20046;-68
2022/09/28 06:30:40;;;;;;;37.72;5.18;;;6.50;99.90;;;;;;4993434;28;20057;-68
2022/09/28 06:33:08;;;;;;;38.90;4.80;;;6.60;99.90;;;;;;4993499;28;20150;-68
2022/09/28 06:35:34;;;;;;;14.50;3.55;;;6.60;99.90;;;;;;4993540;28;20058;-68
2022/09/28 06:38:01;;;;;;;22.35;4.28;;;6.50;99.90;;;;;;4992586;28;20046;-68
2022/09/28 06:40:27;;;;;;;28.00;4.38;;;6.70;99.90;;;;;;4993803;28;20057;-68
2022/09/28 06:42:57;;;;;;;16.67;3.28;;;6.50;99.90;;;;;;4992606;28;20458;-68
2022/09/28 06:45:25;;;;;;;28.75;3.92;;;6.70;99.90;;;;;;4993581;28;20056;-68
2022/09/28 06:48:09;;;;;;;36.00;4.68;;;6.80;99.90;;;;;;4993755;28;20042;-68
2022/09/28 06:50:38;;;;;;;27.80;4.03;;;6.90;99.90;;;;;;4992809;28;20047;-68
2022/09/28 06:53:06;;;;;;;44.92;5.15;;;6.90;99.90;;;;;;4993779;28;20148;-68
2022/09/28 06:55:31;;;;;;;20.42;3.65;;;6.60;99.90;;;;;;4992364;28;20515;-68
2022/09/28 06:58:02;;;;;;;32.90;4.35;;;6.60;99.90;;;;;;4992599;28;20067;-68
2022/09/28 07:00:32;;;;;;;70.95;6.25;;;6.50;99.90;;;;;;4992482;28;20393;-68
2022/09/28 07:02:59;;;;;;;42.78;5.47;;;6.40;99.90;;;;;;4992940;28;20039;-68
2022/09/28 07:05:28;;;;;;;54.85;5.95;;;6.20;99.90;;;;;;4991698;28;20061;-68
2022/09/28 07:07:57;;;;;;;55.22;6.20;;;6.40;99.90;;;;;;4996537;28;20057;-67
2022/09/28 07:10:26;;;;;;;43.95;5.43;;;6.30;99.90;;;;;;4997599;28;20050;-68
2022/09/28 07:12:53;;;;;;;24.73;4.35;;;6.50;99.90;;;;;;4997375;28;20050;-68
2022/09/28 07:15:20;;;;;;;42.78;6.20;;;6.40;99.90;;;;;;4997586;28;20048;-68
2022/09/28 07:17:46;;;;;;;53.65;5.93;;;6.20;99.90;;;;;;4996352;28;20054;-68
2022/09/28 07:20:12;;;;;;;24.77;3.83;;;6.50;99.90;;;;;;4997429;28;20053;-68
2022/09/28 07:22:39;;;;;;;28.25;5.07;;;6.60;99.90;;;;;;4997176;28;20486;-68
2022/09/28 07:25:08;;;;;;;22.40;4.57;;;6.30;99.90;;;;;;4995667;28;20140;-68
2022/09/28 07:27:38;;;;;;;31.63;5.32;;;6.40;99.90;;;;;;4996472;28;20050;-68
2022/09/28 07:30:05;;;;;;;22.13;4.57;;;6.40;99.90;;;;;;4996132;28;20053;-68
2022/09/28 07:32:33;;;;;;;38.90;5.38;;;6.40;99.90;;;;;;4996925;28;20049;-68
2022/09/28 07:35:00;;;;;;;36.55;5.88;;;7.10;99.90;;;;;;4997089;28;20046;-68
2022/09/28 07:37:26;;;;;;;55.70;6.07;;;6.50;99.90;;;;;;4996364;28;20050;-68
2022/09/28 07:42:37;;;;;;;22.15;4.40;;;7.80;99.90;;;;;;4997161;28;20057;-68
2022/09/28 07:45:03;;;;;;;21.63;5.03;;;7.10;99.90;;;;;;4996743;28;20046;-68
2022/09/28 07:47:28;;;;;;;52.83;7.53;;;6.60;99.90;;;;;;4995784;28;20185;-68
2022/09/28 07:49:58;;;;;;;28.60;5.70;;;6.50;99.90;;;;;;4996880;28;20085;-67
2022/09/28 07:52:25;;;;;;;23.27;5.35;;;6.60;99.90;;;;;;4995537;28;20046;-67
2022/09/28 07:54:57;;;;;;;19.30;4.70;;;7.00;99.90;;;;;;4996082;28;20510;-68
2022/09/28 07:57:23;;;;;;;36.33;5.65;;;7.40;99.90;;;;;;4995802;28;20077;-68
2022/09/28 07:59:49;;;;;;;26.23;4.28;;;6.90;99.90;;;;;;4996748;28;20043;-68
2022/09/28 08:02:19;;;;;;;9.98;3.65;;;7.10;99.90;;;;;;4995576;28;20054;-68
2022/09/28 08:04:48;;;;;;;19.90;4.38;;;7.20;99.90;;;;;;4996514;28;20405;-68
2022/09/28 08:07:16;;;;;;;35.38;5.32;;;7.20;99.90;;;;;;4995434;28;20486;-68
2022/09/28 08:09:43;;;;;;;10.77;3.85;;;7.10;99.90;;;;;;4996860;28;20069;-68
2022/09/28 08:12:09;;;;;;;11.93;3.85;;;7.50;99.90;;;;;;4996771;28;20054;-68
2022/09/28 08:14:36;;;;;;;27.52;5.82;;;7.60;99.90;;;;;;4996379;28;20049;-67
2022/09/28 08:17:05;;;;;;;10.77;3.22;;;7.30;99.90;;;;;;4996423;28;20046;-68
2022/09/28 08:22:19;;;;;;;19.50;4.00;;;7.20;99.90;;;;;;4996867;28;20073;-67
2022/09/28 08:24:46;;;;;;;15.73;4.07;;;7.60;99.90;;;;;;4996249;28;20050;-68
2022/09/28 08:27:13;;;;;;;22.58;4.40;;;7.40;99.90;;;;;;4995038;28;20047;-67
2022/09/28 08:29:41;;;;;;;23.25;5.05;;;7.70;99.90;;;;;;4996142;28;20556;-68
2022/09/28 08:32:07;;;;;;;23.23;4.65;;;7.50;99.90;;;;;;4994814;28;20121;-68
2022/09/28 08:34:38;;;;;;;13.35;4.20;;;7.60;99.90;;;;;;4996380;28;20449;-68
2022/09/28 08:37:05;;;;;;;20.20;4.95;;;7.60;99.90;;;;;;4994768;28;20061;-67
2022/09/28 08:39:31;;;;;;;14.43;4.20;;;7.70;99.90;;;;;;4996082;28;20104;-67
2022/09/28 08:42:26;;;;;;;8.80;4.28;;;8.00;99.90;;;;;;4983829;28;20051;-68
2022/09/28 08:44:56;;;;;;;12.25;5.90;;;7.70;99.90;;;;;;4976652;28;20123;-68
2022/09/28 08:50:18;;;;;;;10.98;5.07;;;8.00;99.90;;;;;;4981260;28;20495;-67
2022/09/28 08:52:50;;;;;;;20.00;5.82;;;8.30;99.90;;;;;;4992203;28;20501;-67
2022/09/28 08:55:29;;;;;;;10.60;4.90;;;8.50;99.90;;;;;;4987170;28;20047;-69
2022/09/28 08:58:11;;;;;;;21.60;5.65;;;8.20;99.90;;;;;;4984708;28;20046;-68
2022/09/28 09:00:51;;;;;;;9.25;5.60;;;8.60;99.90;;;;;;4986416;28;20117;-69
2022/09/28 09:03:44;;;;;;;9.50;5.07;;;8.20;99.90;;;;;;4984430;28;20043;-68
2022/09/28 09:06:19;;;;;;;9.60;6.07;;;8.50;99.90;;;;;;4982549;28;20054;-68
2022/09/28 09:09:09;;;;;;;13.85;6.20;;;8.60;99.90;;;;;;4985328;28;20109;-68
2022/09/28 09:12:11;;;;;;;13.90;5.72;;;8.80;99.90;;;;;;4986436;28;20659;-68
2022/09/28 09:15:10;;;;;;;7.90;5.70;;;8.80;99.90;;;;;;4986161;28;20051;-68
2022/09/28 09:17:44;;;;;;;10.02;6.50;;;8.70;99.90;;;;;;4986365;28;20047;-69
2022/09/28 09:20:18;;;;;;;8.50;5.95;;;8.80;99.90;;;;;;4983685;28;20061;-68
2022/09/28 09:23:05;;;;;;;10.95;5.70;;;8.80;99.90;;;;;;4984908;28;20101;-68
2022/09/28 09:25:41;;;;;;;12.23;7.50;;;9.00;99.90;;;;;;4986167;28;20070;-68
2022/09/28 09:28:37;;;;;;;10.15;6.35;;;9.00;99.90;;;;;;4985743;28;20575;-69
2022/09/28 09:31:17;;;;;;;9.52;6.15;;;9.10;99.90;;;;;;4985731;28;20042;-68
2022/09/28 09:33:57;;;;;;;9.52;5.82;;;9.10;99.90;;;;;;4986014;28;20085;-69
2022/09/28 09:36:36;;;;;;;7.15;3.90;;;9.10;99.90;;;;;;4985179;28;20042;-69
2022/09/28 09:39:20;;;;;;;7.50;3.90;;;9.20;99.90;;;;;;4985839;28;20042;-69
2022/09/28 09:42:07;;;;;;;6.57;3.63;;;9.20;99.90;;;;;;4985777;28;20069;-69
2022/09/28 09:44:49;;;;;;;5.68;3.30;;;9.40;99.90;;;;;;4985471;28;20177;-69
2022/09/28 09:47:26;;;;;;;6.72;3.00;;;9.50;99.90;;;;;;4986050;28;20050;-68
2022/09/28 09:50:28;;;;;;;6.28;3.00;;;9.40;99.90;;;;;;4985574;28;20038;-68
2022/09/28 09:53:22;;;;;;;5.75;2.90;;;9.40;99.90;;;;;;4985698;28;20049;-68
2022/09/28 09:55:56;;;;;;;6.57;3.10;;;9.40;99.90;;;;;;4984693;28;20093;-68
2022/09/28 09:58:24;;;;;;;6.55;3.15;;;9.70;99.90;;;;;;4985593;28;20046;-69
2022/09/28 10:00:52;;;;;;;5.80;2.85;;;9.50;99.90;;;;;;4983601;28;20039;-69
2022/09/28 10:03:28;;;;;;;3.97;2.47;;;9.60;99.90;;;;;;4983273;28;20117;-69
2022/09/28 10:06:02;;;;;;;4.97;3.05;;;9.90;99.90;;;;;;4981951;28;20061;-69
2022/09/28 10:08:36;;;;;;;5.47;2.53;;;9.80;99.90;;;;;;4984342;28;20046;-68
2022/09/28 10:11:11;;;;;;;5.18;3.30;;;10.00;99.90;;;;;;4985245;28;20050;-68
2022/09/28 10:13:38;;;;;;;5.32;3.20;;;10.00;99.90;;;;;;4985440;28;20068;-69
2022/09/28 10:16:05;;;;;;;5.75;3.30;;;9.80;99.90;;;;;;4966288;28;20047;-69
2022/09/28 10:18:32;;;;;;;4.05;3.10;;;9.80;99.90;;;;;;4983910;28;20097;-69
2022/09/28 10:20:57;;;;;;;6.93;3.80;;;10.00;99.90;;;;;;4984894;28;20042;-69
2022/09/28 10:23:27;;;;;;;6.72;3.55;;;10.10;99.90;;;;;;4983344;28;20082;-69
2022/09/28 10:25:59;;;;;;;4.82;3.03;;;10.00;99.90;;;;;;4983458;28;20438;-68
2022/09/28 10:28:47;;;;;;;3.72;2.95;;;9.90;99.90;;;;;;4984949;28;20465;-68
2022/09/28 10:31:40;;;;;;;7.15;3.17;;;10.30;99.90;;;;;;4984944;28;20051;-69
2022/09/28 10:34:09;;;;;;;5.43;3.55;;;10.10;99.90;;;;;;4983597;28;20090;-68
2022/09/28 10:37:00;;;;;;;6.85;3.55;;;10.20;99.90;;;;;;4980309;28;20137;-69
2022/09/28 10:39:47;;;;;;;4.85;3.50;;;10.40;99.90;;;;;;4983259;28;20054;-68
2022/09/28 10:42:22;;;;;;;8.60;3.58;;;10.20;99.90;;;;;;4966052;28;20409;-68
2022/09/28 10:45:02;;;;;;;10.43;4.20;;;10.30;99.90;;;;;;4984767;28;20041;-69
2022/09/28 10:47:31;;;;;;;6.78;3.08;;;10.40;99.90;;;;;;4984347;28;20046;-69
2022/09/28 10:49:58;;;;;;;6.53;3.55;;;10.30;99.90;;;;;;4984618;28;20054;-69
2022/09/28 10:52:41;;;;;;;6.10;3.40;;;10.30;99.90;;;;;;4982073;28;20093;-68
2022/09/28 10:55:35;;;;;;;6.63;3.47;;;11.00;99.90;;;;;;4967768;28;20154;-68
2022/09/28 10:58:23;;;;;;;6.10;3.03;;;10.30;99.90;;;;;;4981682;28;20054;-68
2022/09/28 11:00:49;;;;;;;10.10;4.00;;;10.30;99.90;;;;;;4985322;28;20049;-70
2022/09/28 11:03:26;;;;;;;8.52;3.40;;;10.30;99.90;;;;;;4982494;28;20035;-69
2022/09/28 11:06:22;;;;;;;6.05;3.38;;;10.40;99.90;;;;;;4967063;28;20470;-69
2022/09/28 11:08:49;;;;;;;5.85;2.50;;;10.40;99.90;;;;;;4982724;28;20077;-70
2022/09/28 11:11:18;;;;;;;4.45;2.55;;;10.40;99.90;;;;;;4979847;28;20039;-68
2022/09/28 11:13:53;;;;;;;4.95;2.63;;;10.30;99.90;;;;;;4979556;28;20475;-69
2022/09/28 11:16:42;;;;;;;4.60;2.35;;;10.40;99.90;;;;;;4981524;28;20049;-68
2022/09/28 11:19:20;;;;;;;3.97;2.33;;;10.50;99.90;;;;;;4984083;28;20105;-68
2022/09/28 11:21:46;;;;;;;3.67;2.03;;;10.60;99.90;;;;;;4983731;28;20117;-68
2022/09/28 11:24:15;;;;;;;3.20;1.63;;;11.30;99.90;;;;;;4983429;28;20542;-68
2022/09/28 11:26:47;;;;;;;4.25;2.22;;;10.60;99.90;;;;;;4981521;28;20424;-69
2022/09/28 11:29:25;;;;;;;3.33;1.55;;;10.70;99.90;;;;;;4965526;28;20188;-69
2022/09/28 11:31:51;;;;;;;2.85;2.10;;;10.70;99.90;;;;;;4984237;28;20046;-69
2022/09/28 11:34:28;;;;;;;4.38;2.20;;;10.80;99.90;;;;;;4981468;28;20051;-68
2022/09/28 11:37:22;;;;;;;4.03;2.15;;;10.90;99.90;;;;;;4983922;28;20084;-69
2022/09/28 11:40:09;;;;;;;3.90;1.63;;;11.00;99.90;;;;;;4984961;28;20061;-69
2022/09/28 11:43:13;;;;;;;1.40;0.90;;;11.10;99.90;;;;;;4986403;28;20050;-68
2022/09/28 11:45:38;;;;;;;3.28;1.20;;;11.20;99.90;;;;;;4986987;28;20058;-70
2022/09/28 11:48:09;;;;;;;1.63;0.90;;;11.10;99.90;;;;;;4986195;28;20046;-69
2022/09/28 11:51:00;;;;;;;3.17;1.00;;;11.20;99.90;;;;;;4982484;28;20073;-68
2022/09/28 11:53:41;;;;;;;1.77;0.80;;;11.20;99.90;;;;;;4986267;28;20504;-68
2022/09/28 11:56:29;;;;;;;1.73;1.00;;;11.60;99.90;;;;;;4985491;28;20050;-69
2022/09/28 11:59:20;;;;;;;1.75;0.75;;;11.40;99.90;;;;;;4988814;28;20117;-69
2022/09/28 12:02:09;;;;;;;0.60;0.40;;;11.50;99.90;;;;;;4977206;28;20201;-69
2022/09/28 12:04:51;;;;;;;0.75;0.60;;;11.50;99.90;;;;;;4983674;28;20081;-70
2022/09/28 12:07:27;;;;;;;1.92;0.60;;;11.50;99.90;;;;;;4992961;28;20101;-69
2022/09/28 12:10:10;;;;;;;2.20;0.88;;;11.70;99.90;;;;;;4996449;28;20054;-69
2022/09/28 12:12:42;;;;;;;1.17;0.68;;;11.70;99.90;;;;;;4995491;28;20436;-69
2022/09/28 12:15:20;;;;;;;2.35;0.80;;;11.80;99.90;;;;;;4986926;28;20057;-69
2022/09/28 12:17:53;;;;;;;2.55;0.85;;;11.70;99.90;;;;;;4975643;28;20491;-69
2022/09/28 12:20:27;;;;;;;1.30;0.70;;;11.90;99.90;;;;;;4977056;28;20054;-69
2022/09/28 12:23:12;;;;;;;1.20;0.70;;;11.90;99.90;;;;;;4976914;28;20093;-69
2022/09/28 12:25:48;;;;;;;1.52;0.93;;;11.90;99.90;;;;;;4975126;28;20495;-69
2022/09/28 12:28:35;;;;;;;1.27;0.77;;;12.10;99.90;;;;;;4977033;28;20054;-69
2022/09/28 12:31:13;;;;;;;0.90;0.70;;;12.10;99.90;;;;;;4975568;28;20105;-70
2022/09/28 12:33:44;;;;;;;2.03;0.90;;;12.10;99.90;;;;;;4975075;28;20474;-70
2022/09/28 12:36:54;;;;;;;2.22;0.70;;;12.00;99.90;;;;;;4976304;28;20061;-69
2022/09/28 12:39:28;;;;;;;2.58;0.77;;;12.30;99.90;;;;;;4973588;28;20080;-69
2022/09/28 12:42:08;;;;;;;1.23;0.57;;;12.30;99.90;;;;;;4976739;28;20062;-69
2022/09/28 12:44:54;;;;;;;1.50;0.70;;;;;;;;;;4975967;28;20042;-69
2022/09/28 12:47:44;;;;;;;0.60;0.40;;;12.40;99.90;;;;;;4976289;28;20065;-68
2022/09/28 12:50:26;;;;;;;0.98;0.50;;;12.60;99.90;;;;;;4975640;28;20058;-69
2022/09/28 12:53:18;;;;;;;0.30;0.30;;;12.60;99.90;;;;;;4989540;28;20256;-69
2022/09/28 12:55:56;;;;;;;0.60;0.40;;;12.60;99.90;;;;;;4995547;28;20089;-69
2022/09/28 12:58:40;;;;;;;0.65;0.40;;;12.60;99.90;;;;;;4996079;28;20042;-69
2022/09/28 13:01:25;;;;;;;0.30;0.30;;;12.70;99.90;;;;;;4995389;28;20090;-69
2022/09/28 13:04:14;;;;;;;1.00;0.32;;;12.70;99.90;;;;;;4995290;28;20042;-69
2022/09/28 13:07:06;;;;;;;1.00;0.40;;;12.60;99.90;;;;;;4993850;28;20398;-69
2022/09/28 13:10:04;;;;;;;0.75;0.30;;;12.70;99.90;;;;;;4995394;28;20050;-69
2022/09/28 13:12:44;;;;;;;0.45;0.30;;;12.60;99.90;;;;;;4987038;28;20081;-69
2022/09/28 13:15:31;;;;;;;0.30;0.20;;;12.60;99.90;;;;;;4975853;28;20046;-68
2022/09/28 13:18:01;;;;;;;0.70;0.32;;;12.70;99.90;;;;;;4975678;28;20050;-68
2022/09/28 13:20:52;;;;;;;0.68;0.20;;;12.70;99.90;;;;;;4975077;28;20086;-67
2022/09/28 13:23:26;;;;;;;0.40;0.30;;;12.70;99.90;;;;;;4982537;28;20486;-68
2022/09/28 13:26:26;;;;;;;0.45;0.30;;;12.70;99.90;;;;;;4985129;28;20046;-69
2022/09/28 13:29:01;;;;;;;1.02;0.30;;;12.70;99.90;;;;;;4985183;28;20046;-68
2022/09/28 13:31:29;;;;;;;1.05;0.40;;;12.70;99.90;;;;;;4985931;28;20129;-68
2022/09/28 13:33:57;;;;;;;0.30;0.30;;;12.80;99.90;;;;;;4983974;28;20051;-68
2022/09/28 13:36:31;;;;;;;0.90;0.43;;;12.60;99.90;;;;;;4983348;28;20043;-69